Time;durP1;ratioP1;P1;durP2;ratioP2;P2;SDS_P1;SDS_P2;PMS_P1;PMS_P2;Temp;Humidity;BMP_temperature;BMP_pressure;BME280_temperature;BME280_humidity;BME280_pressure;Samples;Min_cycle;Max_cycle;Signal;HPM_P1;HPM_P2
2021/07/24 00:01:11;;;;;;;13.63;9.03;;;;;;;21.00;61.30;101264.13;5093549;28;20178;-69
2021/07/24 00:03:37;;;;;;;11.97;8.07;;;;;;;20.88;61.48;101267.22;5093707;28;20216;-69
2021/07/24 00:06:03;;;;;;;13.63;8.60;;;;;;;20.68;62.06;101269.94;5092683;28;20175;-69
2021/07/24 00:08:29;;;;;;;11.27;8.30;;;;;;;20.15;62.23;101202.47;5082828;28;20616;-69
2021/07/24 00:10:54;;;;;;;13.47;9.37;;;;;;;19.88;62.27;101168.97;5092420;28;20175;-69
2021/07/24 00:13:20;;;;;;;12.67;8.77;;;;;;;20.57;62.44;101267.72;5093249;28;20185;-69
2021/07/24 00:15:45;;;;;;;14.57;8.93;;;;;;;20.46;62.50;101249.88;5085109;28;20186;-69
2021/07/24 00:18:11;;;;;;;12.83;8.80;;;;;;;20.51;62.60;101269.66;5092707;28;20210;-69
2021/07/24 00:20:37;;;;;;;11.90;9.13;;;;;;;20.29;62.54;101229.84;5074910;28;20191;-69
2021/07/24 00:23:05;;;;;;;11.10;9.30;;;;;;;20.44;62.67;101261.59;5092886;28;20179;-69
2021/07/24 00:25:31;;;;;;;13.47;8.77;;;;;;;20.40;62.63;101263.84;5093091;28;20183;-69
2021/07/24 00:27:56;;;;;;;12.43;8.90;;;;;;;19.44;62.89;101144.81;5092279;28;20717;-69
2021/07/24 00:30:22;;;;;;;13.20;9.10;;;;;;;19.86;62.90;101196.00;5092770;28;20183;-69
2021/07/24 00:32:47;;;;;;;13.70;9.50;;;;;;;20.29;63.15;101252.38;5092740;28;20253;-69
2021/07/24 00:35:13;;;;;;;14.27;9.73;;;;;;;20.28;62.91;101253.66;5092808;28;20610;-69
2021/07/24 00:37:38;;;;;;;11.10;9.93;;;;;;;20.12;63.21;101237.19;5092306;28;20195;-69
2021/07/24 00:40:04;;;;;;;12.13;9.70;;;;;;;20.24;63.41;101261.50;5093066;28;20185;-69
2021/07/24 00:42:31;;;;;;;11.40;9.57;;;;;;;20.21;63.26;101258.88;5104873;28;20220;-69
2021/07/24 00:45:01;;;;;;;10.97;9.10;;;;;;;20.18;63.14;101263.44;5113033;28;20176;-69
2021/07/24 00:47:48;;;;;;;10.33;9.23;;;;;;;20.17;63.06;101266.72;5113039;28;20661;-69
2021/07/24 00:50:15;;;;;;;16.00;9.53;;;;;;;19.34;63.09;101146.91;5110410;28;20193;-68
2021/07/24 00:52:42;;;;;;;11.90;9.10;;;;;;;19.82;62.65;101252.47;5074148;28;20202;-69
2021/07/24 00:55:10;;;;;;;10.77;8.60;;;;;;;19.67;63.29;101245.22;5092540;28;20181;-69
2021/07/24 00:57:36;;;;;;;11.40;9.03;;;;;;;19.79;63.72;101264.66;5091987;28;20224;-68
2021/07/24 01:00:05;;;;;;;11.00;9.37;;;;;;;19.80;63.95;101265.44;5092198;28;20651;-69
2021/07/24 01:02:31;;;;;;;11.43;10.10;;;;;;;19.75;64.55;101272.50;5074231;28;20574;-69
2021/07/24 01:05:00;;;;;;;11.47;9.67;;;;;;;19.68;64.72;101270.06;5092155;28;20174;-69
2021/07/24 01:07:25;;;;;;;11.37;9.23;;;;;;;19.64;64.75;101263.81;5091957;28;20175;-69
2021/07/24 01:09:51;;;;;;;11.83;8.90;;;;;;;19.57;64.70;101255.75;5105747;28;20179;-69
2021/07/24 01:12:16;;;;;;;13.40;9.07;;;;;;;19.53;64.85;101262.81;5112556;28;20650;-68
2021/07/24 01:14:42;;;;;;;11.87;9.37;;;;;;;19.63;64.74;101270.72;5112232;28;20206;-69
2021/07/24 01:17:08;;;;;;;10.00;8.97;;;;;;;19.68;64.48;101274.88;5111935;28;20201;-69
2021/07/24 01:19:33;;;;;;;14.60;9.83;;;;;;;19.65;64.57;101265.38;5094204;28;20185;-69
2021/07/24 01:21:59;;;;;;;13.27;9.07;;;;;;;19.66;64.39;101264.13;5112482;28;20182;-69
2021/07/24 01:24:25;;;;;;;10.70;8.80;;;;;;;19.53;63.69;101260.00;5102357;28;20209;-69
2021/07/24 01:26:50;;;;;;;10.53;8.70;;;;;;;18.95;64.06;101190.22;5091202;28;20614;-69
2021/07/24 01:29:21;;;;;;;13.37;8.73;;;;;;;19.36;64.43;101267.28;5091804;28;20660;-68
2021/07/24 01:31:47;;;;;;;12.70;9.53;;;;;;;19.34;64.77;101256.50;5091532;28;20179;-69
2021/07/24 01:34:13;;;;;;;11.10;8.93;;;;;;;18.59;64.78;101136.28;5091778;28;20651;-69
2021/07/24 01:36:38;;;;;;;11.40;9.47;;;;;;;18.35;65.09;101094.13;5072876;28;20178;-69
2021/07/24 01:39:04;;;;;;;13.47;9.00;;;;;;;19.23;64.94;101230.97;5091809;28;20171;-69
2021/07/24 01:41:30;;;;;;;12.80;9.80;;;;;;;19.37;64.79;101243.53;5091438;28;20245;-69
2021/07/24 01:43:55;;;;;;;14.73;9.23;;;;;;;19.37;64.98;101251.97;5091584;28;20171;-68
2021/07/24 01:46:21;;;;;;;12.07;9.80;;;;;;;19.32;64.67;101247.78;5091200;28;20603;-69
2021/07/24 01:54:37;;;;;;;16.87;10.73;;;;;;;19.19;64.98;101240.81;5091452;28;20258;-68
2021/07/24 01:57:09;;;;;;;16.57;9.87;;;;;;;18.58;64.97;101145.94;5090616;28;20576;-69
2021/07/24 01:59:42;;;;;;;13.87;10.07;;;;;;;19.29;64.99;101247.97;5091134;28;20231;-69
2021/07/24 02:02:09;;;;;;;14.97;9.47;;;;;;;18.93;64.57;101203.19;5091116;28;20167;-69
2021/07/24 02:04:39;;;;;;;12.23;10.70;;;;;;;19.25;64.90;101253.75;5091192;28;20167;-69
2021/07/24 02:07:05;;;;;;;16.87;10.50;;;;;;;18.86;65.19;101195.09;5090568;28;20171;-69
2021/07/24 02:09:31;;;;;;;14.77;9.93;;;;;;;19.25;64.77;101250.19;5090960;28;20576;-69
2021/07/24 02:11:56;;;;;;;14.70;10.33;;;;;;;19.17;64.80;101240.50;5090755;28;20182;-68
2021/07/24 02:14:22;;;;;;;13.30;9.53;;;;;;;18.60;64.73;101157.47;5091019;28;20665;-69
2021/07/24 02:16:47;;;;;;;12.97;10.63;;;;;;;18.68;64.87;101190.34;5090355;28;20237;-69
2021/07/24 02:19:13;;;;;;;13.67;9.90;;;;;;;19.19;64.94;101260.50;5072921;28;20205;-68
2021/07/24 02:21:39;;;;;;;16.20;10.70;;;;;;;18.38;65.11;101148.53;5090844;28;20175;-68
2021/07/24 02:24:04;;;;;;;13.87;10.73;;;;;;;19.12;65.20;101255.19;5090750;28;20211;-69
2021/07/24 02:26:30;;;;;;;16.20;10.03;;;;;;;19.20;65.33;101268.44;5090559;28;20772;-69
2021/07/24 02:28:55;;;;;;;15.33;10.90;;;;;;;19.16;65.62;101272.66;5090192;28;20180;-68
2021/07/24 02:31:21;;;;;;;12.73;9.50;;;;;;;19.12;66.05;101272.06;5090154;28;20169;-69
2021/07/24 02:33:46;;;;;;;11.17;9.57;;;;;;;18.74;66.03;101221.38;5090663;28;20691;-69
2021/07/24 02:36:12;;;;;;;12.27;9.97;;;;;;;19.06;66.02;101257.91;5090107;28;20186;-69
2021/07/24 02:38:37;;;;;;;13.43;9.97;;;;;;;19.20;65.93;101273.28;5090697;28;20197;-69
2021/07/24 02:41:04;;;;;;;13.40;9.53;;;;;;;19.20;65.72;101264.84;5090555;28;20173;-68
2021/07/24 02:43:30;;;;;;;15.40;9.87;;;;;;;19.27;65.66;101278.56;5110986;28;20172;-69
2021/07/24 02:45:55;;;;;;;11.47;9.73;;;;;;;19.31;65.45;101274.34;5110645;28;20174;-69
2021/07/24 02:48:21;;;;;;;14.83;9.33;;;;;;;19.26;65.32;101265.78;5092411;28;20179;-69
2021/07/24 02:50:46;;;;;;;12.97;9.23;;;;;;;19.37;65.46;101275.25;5110559;28;20658;-69
2021/07/24 02:53:12;;;;;;;11.57;8.70;;;;;;;19.43;65.26;101276.16;5092758;28;20228;-69
2021/07/24 02:55:37;;;;;;;12.47;9.33;;;;;;;19.20;65.51;101287.31;5110975;28;20173;-69
2021/07/24 02:58:02;;;;;;;12.20;8.83;;;;;;;19.23;65.43;101289.19;5110125;28;20237;-69
2021/07/24 03:00:28;;;;;;;12.27;9.13;;;;;;;19.29;65.35;101285.28;5110669;28;20174;-69
2021/07/24 03:02:53;;;;;;;14.50;9.47;;;;;;;18.96;65.28;101236.72;5110659;28;20706;-69
2021/07/24 03:05:19;;;;;;;14.10;9.27;;;;;;;19.34;65.54;101292.28;5110941;28;20722;-69
2021/07/24 03:07:44;;;;;;;19.87;10.07;;;;;;;19.25;65.73;101290.28;5110334;28;20166;-69
2021/07/24 03:10:10;;;;;;;20.67;9.33;;;;;;;19.24;65.61;101288.72;5093983;28;20678;-69
2021/07/24 03:12:35;;;;;;;14.93;9.90;;;;;;;19.15;66.17;101294.38;5090232;28;20171;-69
2021/07/24 03:15:01;;;;;;;16.37;9.33;;;;;;;19.15;65.79;101282.34;5090153;28;20181;-69
2021/07/24 03:17:28;;;;;;;13.63;9.50;;;;;;;19.18;65.97;101290.59;5089938;28;20276;-68
2021/07/24 03:19:54;;;;;;;13.47;9.40;;;;;;;19.23;65.77;101295.59;5090201;28;20225;-69
2021/07/24 03:22:19;;;;;;;16.30;9.40;;;;;;;19.25;65.93;101293.09;5090356;28;20179;-69
2021/07/24 03:24:45;;;;;;;18.50;9.67;;;;;;;19.31;65.75;101290.41;5102390;28;20175;-69
2021/07/24 03:27:10;;;;;;;11.30;8.93;;;;;;;19.37;65.81;101299.75;5110201;28;20235;-68
2021/07/24 03:29:36;;;;;;;12.30;8.90;;;;;;;18.64;66.18;101186.16;5110375;28;20167;-69
2021/07/24 03:32:02;;;;;;;19.00;8.60;;;;;;;19.44;65.66;101305.03;5110456;28;20479;-69
2021/07/24 03:34:27;;;;;;;12.90;8.70;;;;;;;18.83;64.97;101204.50;5110531;28;20177;-69
2021/07/24 03:36:53;;;;;;;12.73;8.77;;;;;;;19.51;65.00;101335.59;5109813;28;20177;-69
2021/07/24 03:39:18;;;;;;;10.87;7.43;;;;;;;19.03;64.52;101266.50;5110456;28;20658;-69
2021/07/24 03:41:44;;;;;;;12.27;8.13;;;;;;;19.42;64.30;101318.78;5110452;28;20336;-69
2021/07/24 03:44:09;;;;;;;12.47;8.30;;;;;;;19.47;64.16;101316.09;5114718;28;20167;-69
2021/07/24 03:46:35;;;;;;;13.87;8.47;;;;;;;19.46;63.78;101314.56;5113779;28;20282;-69
2021/07/24 03:49:00;;;;;;;14.93;8.37;;;;;;;19.54;63.49;101317.78;5114023;28;20243;-68
2021/07/24 03:51:26;;;;;;;13.47;8.23;;;;;;;19.57;63.21;101326.03;5114103;28;20186;-69
2021/07/24 03:53:51;;;;;;;12.00;8.57;;;;;;;19.54;63.19;101331.84;5113803;28;20178;-69
2021/07/24 03:56:19;;;;;;;10.23;8.47;;;;;;;19.59;63.32;101325.56;5095391;28;20178;-69
2021/07/24 03:58:47;;;;;;;12.20;8.00;;;;;;;19.64;63.08;101324.91;5113870;28;20194;-69
2021/07/24 04:01:13;;;;;;;12.47;7.57;;;;;;;19.10;62.54;101240.88;5113953;28;20701;-69
2021/07/24 04:03:38;;;;;;;8.07;6.83;;;;;;;19.42;62.75;101294.28;5113882;28;20184;-69
2021/07/24 04:06:07;;;;;;;11.30;7.83;;;;;;;19.74;62.51;101334.84;5114009;28;20183;-69
2021/07/24 04:08:34;;;;;;;8.90;7.27;;;;;;;19.78;62.55;101338.25;5110708;28;20175;-69
2021/07/24 04:11:00;;;;;;;12.53;7.60;;;;;;;19.78;62.47;101346.69;5093152;28;20180;-69
2021/07/24 04:13:26;;;;;;;14.83;7.77;;;;;;;19.77;62.30;101336.69;5093227;28;20249;-69
2021/07/24 04:15:51;;;;;;;16.83;8.57;;;;;;;19.82;62.22;101339.66;5093150;28;20212;-69
2021/07/24 04:18:17;;;;;;;12.53;8.83;;;;;;;19.10;62.21;101236.03;5092811;28;20288;-69
2021/07/24 04:20:43;;;;;;;13.33;8.40;;;;;;;19.25;62.46;101253.75;5093013;28;20179;-69
2021/07/24 04:23:08;;;;;;;16.13;8.70;;;;;;;19.77;62.58;101331.88;5093113;28;20245;-69
2021/07/24 04:25:34;;;;;;;12.67;8.27;;;;;;;19.84;62.45;101344.78;5112417;28;20174;-69
2021/07/24 04:27:59;;;;;;;12.80;8.10;;;;;;;19.94;62.38;101335.00;5104502;28;20197;-69
2021/07/24 04:30:25;;;;;;;11.83;8.73;;;;;;;20.02;62.28;101336.22;5113046;28;20173;-69
2021/07/24 04:32:51;;;;;;;14.53;9.00;;;;;;;20.04;62.26;101342.13;5113286;28;20572;-68
2021/07/24 04:35:17;;;;;;;12.57;8.60;;;;;;;19.57;62.52;101260.59;5113338;28;20176;-69
2021/07/24 04:37:42;;;;;;;13.43;8.63;;;;;;;20.06;62.42;101336.81;5112547;28;20261;-69
2021/07/24 04:40:08;;;;;;;13.27;8.67;;;;;;;20.04;62.39;101337.28;5113592;28;20178;-69
2021/07/24 04:42:34;;;;;;;15.43;9.30;;;;;;;19.78;61.88;101299.66;5112965;28;20222;-69
2021/07/24 04:45:00;;;;;;;14.17;9.33;;;;;;;19.77;62.27;101315.00;5104630;28;20626;-69
2021/07/24 04:47:25;;;;;;;13.60;8.27;;;;;;;19.99;62.74;101342.78;5111681;28;20263;-69
2021/07/24 04:49:53;;;;;;;10.77;9.17;;;;;;;19.97;63.10;101351.72;5112975;28;20679;-69
2021/07/24 04:52:20;;;;;;;16.43;9.67;;;;;;;19.98;63.51;101350.47;5112910;27;20232;-69
2021/07/24 04:54:46;;;;;;;16.77;9.03;;;;;;;20.10;63.59;101351.50;5112578;28;20171;-69
2021/07/24 04:57:13;;;;;;;12.77;8.47;;;;;;;20.23;63.32;101347.19;5112271;28;20581;-69
2021/07/24 04:59:46;;;;;;;14.30;9.20;;;;;;;20.34;62.79;101338.97;5112638;28;20177;-69
2021/07/24 05:02:19;;;;;;;13.77;8.90;;;;;;;20.45;62.43;101353.25;5113052;28;20166;-69
2021/07/24 05:04:45;;;;;;;15.03;8.97;;;;;;;20.57;62.42;101346.56;5111295;28;20236;-69
2021/07/24 05:07:18;;;;;;;13.30;8.93;;;;;;;20.70;62.21;101344.25;5112349;28;20236;-69
2021/07/24 05:09:44;;;;;;;12.43;9.20;;;;;;;20.81;61.37;101338.81;5112198;28;20203;-69
2021/07/24 05:12:10;;;;;;;14.10;8.87;;;;;;;20.87;61.30;101338.91;5112434;28;20182;-69
2021/07/24 05:14:36;;;;;;;16.93;9.73;;;;;;;20.94;61.49;101358.28;5112639;28;20644;-69
2021/07/24 05:17:12;;;;;;;15.07;10.00;;;;;;;20.97;61.57;101343.19;5112109;28;20183;-69
2021/07/24 05:19:39;;;;;;;14.57;9.43;;;;;;;21.02;62.13;101351.75;5112371;28;20544;-69
2021/07/24 05:22:06;;;;;;;17.17;10.27;;;;;;;20.82;62.98;101350.88;5112405;28;20178;-69
2021/07/24 05:24:33;;;;;;;12.67;9.70;;;;;;;20.92;63.37;101360.78;5112121;28;20188;-69
2021/07/24 05:26:58;;;;;;;13.10;9.63;;;;;;;21.01;63.37;101360.69;5111582;28;20571;-69
2021/07/24 05:29:24;;;;;;;11.70;9.07;;;;;;;21.12;63.12;101356.03;5112153;28;20546;-69
2021/07/24 05:31:49;;;;;;;14.07;9.73;;;;;;;21.28;62.37;101361.16;5112185;28;20180;-69
2021/07/24 05:34:14;;;;;;;12.73;10.50;;;;;;;21.34;62.14;101364.84;5112204;28;20234;-69
2021/07/24 05:36:40;;;;;;;14.23;10.50;;;;;;;21.46;61.78;101368.59;5111960;28;20197;-68
2021/07/24 05:39:05;;;;;;;12.43;10.30;;;;;;;21.50;60.27;101367.13;5111965;28;20575;-69
2021/07/24 05:41:31;;;;;;;11.80;9.23;;;;;;;21.55;60.41;101360.78;5107615;28;20222;-69
2021/07/24 05:43:56;;;;;;;12.90;9.77;;;;;;;21.55;60.06;101374.91;5073352;28;20217;-69
2021/07/24 05:46:22;;;;;;;12.37;8.97;;;;;;;21.63;59.92;101376.06;5091114;28;20181;-69
2021/07/24 05:48:47;;;;;;;12.97;8.10;;;;;;;21.72;58.81;101375.19;5091394;28;20178;-69
2021/07/24 05:51:12;;;;;;;10.60;8.90;;;;;;;21.78;59.40;101374.00;5091310;28;20181;-69
2021/07/24 05:53:38;;;;;;;14.03;8.50;;;;;;;21.88;59.31;101381.06;5091454;28;20664;-69
2021/07/24 05:56:04;;;;;;;13.37;8.00;;;;;;;21.98;59.04;101378.88;5072551;28;20183;-69
2021/07/24 05:58:30;;;;;;;10.30;8.40;;;;;;;21.51;59.07;101278.47;5091875;28;20232;-69
2021/07/24 06:00:56;;;;;;;13.37;8.00;;;;;;;22.20;58.47;101371.47;5090962;28;20182;-69
2021/07/24 06:03:21;;;;;;;12.40;8.63;;;;;;;22.33;59.00;101379.59;5091296;28;20560;-69
2021/07/24 06:05:47;;;;;;;11.67;8.33;;;;;;;22.51;58.32;101382.91;5090460;28;20182;-69
2021/07/24 06:08:12;;;;;;;10.97;8.20;;;;;;;22.65;58.11;101386.91;5090383;28;20174;-69
2021/07/24 06:10:38;;;;;;;11.10;7.97;;;;;;;22.05;57.39;101282.50;5087831;28;20625;-69
2021/07/24 06:13:03;;;;;;;12.80;8.73;;;;;;;22.77;57.57;101391.44;5090825;28;20190;-69
2021/07/24 06:15:30;;;;;;;14.23;8.77;;;;;;;22.86;55.37;101383.56;5090574;28;20175;-69
2021/07/24 06:17:56;;;;;;;11.77;8.40;;;;;;;22.59;56.09;101321.91;5081999;28;20199;-69
2021/07/24 06:20:22;;;;;;;17.63;8.83;;;;;;;22.94;56.16;101366.94;5090424;28;20179;-69
2021/07/24 06:22:47;;;;;;;10.73;8.03;;;;;;;22.62;55.45;101289.81;5090675;28;20262;-69
2021/07/24 06:25:13;;;;;;;12.53;7.80;;;;;;;23.24;55.00;101388.81;5090619;28;20189;-69
2021/07/24 06:27:40;;;;;;;11.90;8.37;;;;;;;23.30;55.86;101381.16;5089250;28;20259;-69
2021/07/24 06:30:06;;;;;;;13.80;8.70;;;;;;;23.49;54.08;101387.22;5076220;28;20225;-69
2021/07/24 06:32:32;;;;;;;11.43;8.90;;;;;;;23.71;52.92;101393.81;5090412;28;20639;-69
2021/07/24 06:34:57;;;;;;;14.03;9.20;;;;;;;23.85;53.21;101392.84;5082660;28;20178;-69
2021/07/24 06:37:22;;;;;;;14.47;8.17;;;;;;;24.05;52.44;101394.81;5088184;28;20199;-69
2021/07/24 06:39:48;;;;;;;14.30;9.37;;;;;;;24.07;52.31;101361.88;5089014;28;20183;-69
2021/07/24 06:42:13;;;;;;;10.47;8.60;;;;;;;24.12;52.37;101395.09;5098932;28;20320;-69
2021/07/24 06:44:39;;;;;;;13.07;10.00;;;;;;;24.14;51.51;101397.41;5108672;28;20705;-69
2021/07/24 06:47:05;;;;;;;10.20;8.90;;;;;;;24.06;52.30;101396.34;5108819;28;20724;-69
2021/07/24 06:49:30;;;;;;;11.53;9.37;;;;;;;23.62;51.89;101337.41;5108041;28;20210;-69
2021/07/24 06:51:56;;;;;;;13.37;9.90;;;;;;;24.12;52.36;101391.50;5104604;28;20187;-69
2021/07/24 06:54:21;;;;;;;14.00;9.30;;;;;;;24.27;52.79;101386.41;5087582;28;21340;-69
2021/07/24 06:56:47;;;;;;;11.50;9.27;;;;;;;24.17;52.53;101385.84;5105986;28;20193;-69
2021/07/24 06:59:13;;;;;;;14.07;9.60;;;;;;;24.11;52.82;101378.63;5107047;28;20170;-69
2021/07/24 07:01:38;;;;;;;14.17;9.20;;;;;;;23.15;52.88;101232.69;5103079;28;20214;-69
2021/07/24 07:04:06;;;;;;;10.13;8.40;;;;;;;24.37;52.89;101379.25;5108781;28;20256;-69
2021/07/24 07:06:32;;;;;;;16.27;8.90;;;;;;;24.68;51.81;101384.78;5108936;28;20285;-69
2021/07/24 07:08:58;;;;;;;11.97;8.93;;;;;;;24.86;51.13;101387.91;5105686;28;20671;-69
2021/07/24 07:11:25;;;;;;;11.27;8.53;;;;;;;25.08;50.85;101392.84;5104789;28;20193;-69
2021/07/24 07:13:50;;;;;;;12.90;8.60;;;;;;;25.17;50.84;101390.50;5101692;28;20190;-68
2021/07/24 07:16:15;;;;;;;13.60;9.23;;;;;;;25.25;50.81;101391.59;5111411;27;20186;-69
2021/07/24 07:18:41;;;;;;;12.73;8.70;;;;;;;24.61;50.24;101278.34;5113118;28;20212;-69
2021/07/24 07:21:08;;;;;;;12.70;9.10;;;;;;;25.56;50.32;101394.13;5095901;28;20177;-69
2021/07/24 07:23:34;;;;;;;11.33;9.03;;;;;;;25.22;49.88;101315.97;5111849;27;20273;-69
2021/07/24 07:26:01;;;;;;;13.70;8.70;;;;;;;25.61;50.30;101386.91;5107233;28;20625;-69
2021/07/24 07:28:26;;;;;;;14.27;8.80;;;;;;;25.56;50.20;101382.78;5112180;27;20228;-69
2021/07/24 07:30:52;;;;;;;12.07;8.70;;;;;;;24.73;49.92;101220.41;5109422;28;20183;-69
2021/07/24 07:33:17;;;;;;;13.83;9.43;;;;;;;25.90;49.66;101372.88;5111422;28;20190;-69
2021/07/24 07:35:43;;;;;;;13.77;9.47;;;;;;;26.10;49.04;101383.19;5112902;28;20606;-69
2021/07/24 07:38:09;;;;;;;12.67;9.40;;;;;;;25.83;48.12;101315.88;5112240;28;20202;-69
2021/07/24 07:40:41;;;;;;;11.40;8.67;;;;;;;26.35;47.94;101373.56;5112296;28;20264;-69
2021/07/24 07:43:08;;;;;;;14.83;10.00;;;;;;;26.51;47.99;101386.91;5107895;28;20599;-69
2021/07/24 07:45:36;;;;;;;15.73;9.60;;;;;;;26.63;47.93;101391.25;5112755;28;20186;-69
2021/07/24 07:48:03;;;;;;;13.57;9.23;;;;;;;26.75;47.82;101392.72;5111966;28;20182;-69
2021/07/24 07:50:28;;;;;;;16.03;9.47;;;;;;;26.32;47.24;101314.91;5100594;27;20679;-69
2021/07/24 07:52:53;;;;;;;17.03;9.50;;;;;;;26.81;46.88;101388.53;5111110;27;20174;-69
2021/07/24 07:55:19;;;;;;;13.90;9.30;;;;;;;26.44;46.99;101336.28;5112789;27;20637;-69
2021/07/24 07:57:45;;;;;;;14.10;9.70;;;;;;;26.85;47.40;101377.66;5111520;28;20202;-69
2021/07/24 08:00:11;;;;;;;12.63;10.03;;;;;;;27.11;47.13;101395.06;5112082;28;20217;-69
2021/07/24 08:02:36;;;;;;;15.60;10.27;;;;;;;27.24;46.45;101397.31;5093761;28;20597;-69
2021/07/24 08:05:02;;;;;;;17.03;10.20;;;;;;;27.40;46.72;101388.66;5098907;28;20189;-69
2021/07/24 08:07:28;;;;;;;14.27;9.77;;;;;;;27.34;46.44;101367.97;5068802;27;20189;-69
2021/07/24 08:09:56;;;;;;;15.97;10.63;;;;;;;27.59;45.61;101388.72;5071830;28;20190;-69
2021/07/24 08:12:23;;;;;;;14.03;9.97;;;;;;;27.78;45.11;101393.19;5071608;28;20198;-69
2021/07/24 08:14:50;;;;;;;10.75;9.25;;;;;;;27.92;44.39;101388.41;5097108;28;20232;-69
2021/07/24 08:17:16;;;;;;;12.30;9.23;;;;;;;28.01;43.80;101393.75;5091485;27;20210;-69
2021/07/24 08:19:42;;;;;;;12.47;8.80;;;;;;;28.02;44.47;101395.28;5099064;28;20200;-69
2021/07/24 08:22:07;;;;;;;10.02;8.63;;;;;;;27.89;44.30;101401.63;5106915;28;20186;-69
2021/07/24 08:24:33;;;;;;;13.63;9.38;;;;;;;27.70;44.49;101380.06;5105982;28;20190;-69
2021/07/24 08:26:58;;;;;;;10.83;8.33;;;;;;;27.73;43.92;101357.00;5102587;28;20190;-69
2021/07/24 08:29:24;;;;;;;10.38;8.18;;;;;;;27.72;44.08;101386.78;5105284;28;20182;-69
2021/07/24 08:31:49;;;;;;;13.43;9.03;;;;;;;27.57;45.12;101397.81;5107628;28;20182;-69
2021/07/24 08:34:14;;;;;;;12.63;8.87;;;;;;;27.48;45.78;101397.38;5110751;28;20178;-69
2021/07/24 08:36:40;;;;;;;12.20;8.63;;;;;;;27.77;45.48;101399.41;5111293;28;20667;-69
2021/07/24 08:39:05;;;;;;;11.97;8.90;;;;;;;28.04;44.33;101398.38;5110445;28;20202;-69
2021/07/24 08:41:31;;;;;;;12.73;8.70;;;;;;;28.13;44.54;101380.91;5111093;28;20232;-69
2021/07/24 08:43:56;;;;;;;12.17;8.70;;;;;;;28.35;43.70;101384.25;5111755;28;20762;-69
2021/07/24 08:46:22;;;;;;;10.70;8.37;;;;;;;28.41;42.63;101376.41;5110245;28;20478;-69
2021/07/24 08:48:47;;;;;;;12.90;8.87;;;;;;;28.30;43.28;101387.19;5109411;28;20217;-69
2021/07/24 08:51:16;;;;;;;12.00;8.53;;;;;;;28.44;43.71;101389.59;5090760;28;20248;-69
2021/07/24 08:53:44;;;;;;;10.67;8.43;;;;;;;28.67;43.24;101378.66;5110194;28;20182;-69
2021/07/24 08:56:17;;;;;;;10.87;8.43;;;;;;;28.97;42.32;101385.75;5109094;28;20190;-69
2021/07/24 08:58:45;;;;;;;11.87;8.80;;;;;;;29.10;42.25;101368.69;5109889;28;20202;-69
2021/07/24 09:01:21;;;;;;;11.82;9.10;;;;;;;29.14;42.87;101386.28;5110097;28;20674;-69
2021/07/24 09:03:47;;;;;;;12.67;8.73;;;;;;;28.90;43.10;101388.44;5110555;28;20248;-69
2021/07/24 09:06:21;;;;;;;11.02;8.73;;;;;;;28.52;43.45;101333.53;5110129;28;20182;-69
2021/07/24 09:08:50;;;;;;;11.60;9.23;;;;;;;28.73;42.20;101391.56;5105873;28;20565;-69
2021/07/24 09:11:17;;;;;;;11.77;8.95;;;;;;;28.63;43.69;101383.91;5090564;28;20648;-69
2021/07/24 09:13:42;;;;;;;12.95;8.38;;;;;;;28.81;43.10;101381.03;5091300;28;20179;-69
2021/07/24 09:16:08;;;;;;;12.25;8.55;;;;;;;28.84;42.22;101337.19;5090514;28;20257;-69
2021/07/24 09:18:34;;;;;;;11.32;8.55;;;;;;;29.06;42.17;101385.34;5091184;28;20676;-69
2021/07/24 09:21:00;;;;;;;11.10;8.57;;;;;;;28.73;41.88;101296.63;5090960;28;20174;-69
2021/07/24 09:23:32;;;;;;;10.80;7.68;;;;;;;29.55;40.80;101380.91;5092526;28;20239;-69
2021/07/24 09:25:57;;;;;;;12.95;7.97;;;;;;;29.83;40.77;101374.69;5111032;28;20670;-69
2021/07/24 09:28:23;;;;;;;13.02;8.27;;;;;;;30.07;40.12;101391.59;5111389;28;20249;-69
2021/07/24 09:30:49;;;;;;;13.75;8.05;;;;;;;30.23;39.77;101361.94;5111608;28;20182;-69
2021/07/24 09:33:17;;;;;;;12.07;8.23;;;;;;;30.35;39.96;101368.97;5111456;28;20610;-69
2021/07/24 09:35:53;;;;;;;11.88;7.90;;;;;;;30.63;39.61;101378.47;5111541;28;20174;-69
2021/07/24 09:38:29;;;;;;;13.23;8.20;;;;;;;30.39;39.47;101323.63;5111103;28;20202;-69
2021/07/24 09:40:56;;;;;;;9.07;8.18;;;;;;;30.93;39.40;101363.75;5092850;28;20694;-69
2021/07/24 09:43:41;;;;;;;14.40;8.27;;;;;;;31.11;38.78;101351.34;5111213;28;20226;-69
2021/07/24 09:46:21;;;;;;;9.45;7.82;;;;;;;31.32;38.60;101346.41;5110704;28;20181;-69
2021/07/24 09:48:48;;;;;;;11.50;7.63;;;;;;;31.07;38.44;101290.81;5111028;28;20548;-69
2021/07/24 09:51:15;;;;;;;12.07;7.38;;;;;;;31.66;36.69;101350.69;5111184;28;20179;-69
2021/07/24 09:53:44;;;;;;;9.85;7.75;;;;;;;31.08;36.79;101232.22;5111007;28;20566;-69
2021/07/24 09:56:15;;;;;;;10.35;7.50;;;;;;;32.00;36.92;101347.66;5110722;28;20177;-69
2021/07/24 09:58:41;;;;;;;12.95;7.47;;;;;;;31.48;36.21;101251.41;5110940;28;20197;-69
2021/07/24 10:01:27;;;;;;;10.98;7.68;;;;;;;32.18;35.74;101353.13;5111411;28;20559;-69
2021/07/24 10:04:02;;;;;;;11.52;7.28;;;;;;;32.28;35.61;101350.50;5110174;28;20254;-69
2021/07/24 10:06:27;;;;;;;9.88;7.28;;;;;;;32.35;34.77;101350.53;5110698;28;20602;-69
2021/07/24 10:08:53;;;;;;;10.50;7.25;;;;;;;32.29;35.83;101349.19;5110938;28;20231;-69
2021/07/24 10:11:19;;;;;;;12.55;7.18;;;;;;;32.04;35.62;101343.09;5110927;28;20565;-69
2021/07/24 10:13:45;;;;;;;10.95;7.60;;;;;;;31.97;37.49;101343.06;5110824;28;20192;-69
2021/07/24 10:16:10;;;;;;;9.93;6.70;;;;;;;31.90;36.33;101341.69;5110252;28;20247;-69
2021/07/24 10:18:39;;;;;;;9.90;7.15;;;;;;;31.35;36.15;101283.03;5110714;28;20197;-69
2021/07/24 10:21:05;;;;;;;12.65;7.90;;;;;;;31.90;35.97;101335.19;5111049;28;20565;-69
2021/07/24 10:23:30;;;;;;;9.25;7.30;;;;;;;31.80;35.30;101309.16;5108802;28;20174;-69
2021/07/24 10:26:12;;;;;;;12.00;7.00;;;;;;;32.22;35.87;101329.81;5089667;28;20211;-69
2021/07/24 10:28:58;;;;;;;9.57;7.18;;;;;;;32.10;35.74;101326.50;5090131;28;20625;-69
2021/07/24 10:31:29;;;;;;;9.25;7.25;;;;;;;32.40;35.10;101331.63;5090100;28;20214;-70
2021/07/24 10:34:00;;;;;;;11.27;7.25;;;;;;;32.00;34.40;101227.25;5090127;28;20648;-69
2021/07/24 10:36:43;;;;;;;9.60;7.40;;;;;;;32.88;35.81;101327.75;5089442;28;20236;-69
2021/07/24 10:39:17;;;;;;;13.75;7.00;;;;;;;32.45;33.62;101322.84;5090255;28;20186;-69
2021/07/24 10:41:47;;;;;;;8.32;6.80;;;;;;;31.98;34.73;101319.56;5071921;28;20261;-69
2021/07/24 10:44:16;;;;;;;11.52;7.55;;;;;;;32.24;35.25;101315.69;5090369;28;20213;-69
2021/07/24 10:46:44;;;;;;;8.93;7.25;;;;;;;32.35;34.90;101315.38;5089885;28;20183;-69
2021/07/24 10:49:19;;;;;;;9.70;7.18;;;;;;;32.72;33.71;101318.34;5090740;28;20202;-69
2021/07/24 10:52:11;;;;;;;10.90;6.90;;;;;;;32.79;33.10;101314.75;5089981;28;20395;-69
2021/07/24 10:54:51;;;;;;;9.52;6.88;;;;;;;32.95;33.34;101316.28;5079285;28;20206;-69
2021/07/24 10:57:43;;;;;;;9.23;6.88;;;;;;;33.26;33.38;101317.09;5089765;28;20289;-69
2021/07/24 11:00:34;;;;;;;8.85;6.63;;;;;;;33.36;33.67;101310.19;5077053;28;20263;-69
2021/07/24 11:03:00;;;;;;;7.80;7.00;;;;;;;33.32;32.93;101298.31;5078377;28;20190;-69
2021/07/24 11:05:30;;;;;;;9.63;6.82;;;;;;;33.23;33.32;101301.75;5090514;28;20193;-69
2021/07/24 11:07:57;;;;;;;9.27;7.13;;;;;;;32.94;32.74;101302.50;5089448;28;20663;-70
2021/07/24 11:10:23;;;;;;;11.05;6.65;;;;;;;33.09;32.63;101300.41;5108557;28;20273;-69
2021/07/24 11:12:49;;;;;;;9.82;7.05;;;;;;;32.73;34.24;101268.22;5110464;28;20559;-69
2021/07/24 11:15:43;;;;;;;11.70;7.07;;;;;;;32.91;34.62;101307.28;5110551;28;20271;-70
2021/07/24 11:18:27;;;;;;;8.80;6.40;;;;;;;32.94;32.57;101300.41;5109986;28;20242;-69
2021/07/24 11:20:53;;;;;;;8.32;6.13;;;;;;;33.16;32.59;101298.88;5110479;28;20261;-69
2021/07/24 11:23:20;;;;;;;8.57;6.40;;;;;;;33.41;31.88;101291.22;5110180;28;20244;-69